Terminal Aerodrome Forecast
Issued by NWS

Home | Current Version | Previous Version | Text Only | Print | Product List | Glossary Off
Versions: 1 2 3 4 5 6 7 8 9 10 11 12 13 14 15 16 17 18 19 20 21 22 23 24 25 26 27 28 29 30 31 32 33 34 35 36 37 38 39 40

914
FTUS43 KGRB 192326
TAFATW
TAF
KATW 192326Z 2000/2024 04014G22KT 4SM -FZDZ BR OVC006
      TEMPO 2000/2004 1SM -FZRAPL BR BKN004
     FM200400 02009KT 4SM -FZDZ BR OVC004
     FM200900 03006KT 2SM -FZDZ BR OVC003
     FM201700 29005KT 5SM -RA BR OVC005
     FM201900 28006KT 6SM -RA OVC007
     FM202300 29009KT P6SM OVC011=

USA.gov is the U.S. government's official web portal to all federal, state and local government web resources and services.